createdAt,value
2017-06-24T00:00:16.273Z,12.00
2017-06-24T00:02:42.973Z,16.65
2017-06-24T00:05:09.659Z,14.80
2017-06-24T00:07:36.377Z,13.38
2017-06-24T00:10:03.063Z,12.88
2017-06-24T00:12:29.785Z,13.90
2017-06-24T00:14:56.468Z,16.90
2017-06-24T00:17:23.149Z,15.18
2017-06-24T00:19:49.829Z,17.50
2017-06-24T00:22:16.517Z,12.95
2017-06-24T00:24:43.201Z,13.93
2017-06-24T00:27:09.888Z,13.75
2017-06-24T00:29:36.588Z,13.07
2017-06-24T00:32:03.261Z,13.60
2017-06-24T00:34:29.963Z,15.88
2017-06-24T00:36:56.645Z,14.40
2017-06-24T00:39:23.349Z,12.88
2017-06-24T00:41:50.027Z,14.23
2017-06-24T00:44:16.703Z,14.35
2017-06-24T00:46:43.381Z,15.00
2017-06-24T00:49:10.062Z,14.23
2017-06-24T00:51:36.733Z,13.80
2017-06-24T00:54:03.423Z,14.32
2017-06-24T00:56:30.109Z,15.02
2017-06-24T00:58:56.801Z,19.50
2017-06-24T01:01:23.481Z,15.27
2017-06-24T01:03:50.158Z,15.05
2017-06-24T01:06:16.856Z,15.25
2017-06-24T01:08:43.536Z,15.25
2017-06-24T01:11:10.240Z,17.90
2017-06-24T01:13:36.915Z,14.40
2017-06-24T01:16:03.632Z,14.95
2017-06-24T01:18:30.303Z,18.35
2017-06-24T01:20:56.981Z,14.50
2017-06-24T01:23:23.661Z,16.00
2017-06-24T01:25:50.639Z,14.15
2017-06-24T01:28:17.337Z,13.98
2017-06-24T01:30:44.016Z,15.27
2017-06-24T01:33:10.700Z,14.55
2017-06-24T01:35:37.382Z,15.73
2017-06-24T01:38:04.056Z,14.00
2017-06-24T01:40:30.736Z,14.40
2017-06-24T01:42:57.432Z,14.55
2017-06-24T01:45:24.106Z,14.95
2017-06-24T01:47:50.812Z,17.27
2017-06-24T01:50:17.498Z,23.20
2017-06-24T01:52:44.221Z,18.20
2017-06-24T01:55:10.897Z,16.00
2017-06-24T01:57:37.588Z,14.65
2017-06-24T02:00:04.273Z,15.23
2017-06-24T02:02:30.952Z,14.73
2017-06-24T02:04:57.629Z,17.00
2017-06-24T02:07:24.303Z,17.00
2017-06-24T02:09:50.979Z,13.43
2017-06-24T02:12:17.667Z,15.50
2017-06-24T02:14:44.348Z,14.90
2017-06-24T02:17:11.035Z,21.33
2017-06-24T02:19:37.714Z,13.35
2017-06-24T02:22:04.404Z,13.85
2017-06-24T02:24:31.107Z,14.45
2017-06-24T02:26:57.784Z,16.60
2017-06-24T02:29:24.485Z,12.32
2017-06-24T02:31:51.980Z,15.43
2017-06-24T02:34:18.652Z,15.20
2017-06-24T02:36:45.325Z,12.40
2017-06-24T02:39:12.009Z,13.43
2017-06-24T02:41:38.691Z,14.32
2017-06-24T02:44:05.368Z,14.87
2017-06-24T02:46:32.046Z,12.70
2017-06-24T02:48:58.723Z,11.65
2017-06-24T02:51:25.400Z,11.88
2017-06-24T02:53:52.077Z,13.07
2017-06-24T02:56:18.791Z,14.38
2017-06-24T02:58:45.459Z,14.93
2017-06-24T03:01:12.144Z,12.20
2017-06-24T03:03:38.820Z,12.68
2017-06-24T03:06:05.511Z,11.88
2017-06-24T03:08:32.188Z,13.40
2017-06-24T03:10:58.860Z,16.40
2017-06-24T03:13:25.544Z,11.80
2017-06-24T03:15:52.228Z,11.70
2017-06-24T03:18:18.903Z,12.85
2017-06-24T03:20:45.584Z,11.63
2017-06-24T03:23:12.293Z,13.88
2017-06-24T03:25:38.971Z,12.60
2017-06-24T03:28:05.648Z,11.15
2017-06-24T03:30:32.328Z,13.13
2017-06-24T03:32:59.012Z,11.27
2017-06-24T03:35:25.673Z,9.70
2017-06-24T03:37:52.360Z,9.50
2017-06-24T03:40:19.051Z,10.55
2017-06-24T03:42:45.720Z,9.35
2017-06-24T03:45:12.402Z,11.63
2017-06-24T03:47:39.077Z,14.48
2017-06-24T03:50:05.759Z,10.82
2017-06-24T03:52:32.429Z,9.70
2017-06-24T03:54:59.108Z,13.93
2017-06-24T03:57:25.791Z,13.02
2017-06-24T03:59:52.465Z,11.23
2017-06-24T04:02:19.169Z,14.80
2017-06-24T04:04:45.860Z,12.32
2017-06-24T04:07:12.556Z,15.13
2017-06-24T04:09:39.223Z,10.32
2017-06-24T04:12:05.923Z,11.25
2017-06-24T04:14:32.600Z,13.93
2017-06-24T04:16:59.303Z,12.77
2017-06-24T04:19:25.975Z,11.55
2017-06-24T04:21:52.671Z,10.30
2017-06-24T04:24:19.338Z,16.98
2017-06-24T04:26:46.031Z,9.45
2017-06-24T04:29:12.709Z,12.75
2017-06-24T04:31:39.409Z,14.50
2017-06-24T04:34:06.092Z,10.40
2017-06-24T04:36:32.763Z,15.52
2017-06-24T04:38:59.443Z,13.60
2017-06-24T04:41:26.128Z,10.90
2017-06-24T04:43:52.837Z,11.88
2017-06-24T04:46:19.508Z,9.55
2017-06-24T04:48:46.207Z,10.32
2017-06-24T04:51:12.881Z,11.07
2017-06-24T04:53:39.577Z,9.48
2017-06-24T04:56:06.264Z,12.18
2017-06-24T04:58:32.979Z,10.13
2017-06-24T05:00:59.647Z,9.40
2017-06-24T05:03:26.345Z,9.20
2017-06-24T05:05:53.024Z,10.98
2017-06-24T05:08:19.699Z,9.00
2017-06-24T05:10:46.360Z,8.75
2017-06-24T05:13:13.034Z,13.85
2017-06-24T05:15:39.761Z,9.50
2017-06-24T05:18:06.440Z,10.93
2017-06-24T05:20:33.140Z,14.38
2017-06-24T05:22:59.815Z,8.80
2017-06-24T05:25:26.516Z,7.22
2017-06-24T05:27:53.197Z,8.65
2017-06-24T05:30:19.903Z,10.93
2017-06-24T05:32:46.572Z,8.05
2017-06-24T05:35:13.253Z,11.68
2017-06-24T05:37:39.939Z,10.85
2017-06-24T05:40:06.623Z,11.63
2017-06-24T05:42:33.318Z,9.68
2017-06-24T05:44:59.996Z,7.37
2017-06-24T05:47:26.683Z,7.82
2017-06-24T05:49:53.361Z,9.55
2017-06-24T05:52:20.060Z,11.23
2017-06-24T05:54:46.743Z,10.10
2017-06-24T05:57:13.444Z,9.45
2017-06-24T05:59:40.112Z,7.37
2017-06-24T06:02:06.822Z,10.07
2017-06-24T06:04:33.492Z,11.27
2017-06-24T06:07:00.193Z,9.00
2017-06-24T06:09:26.856Z,8.00
2017-06-24T06:11:53.523Z,9.00
2017-06-24T06:14:20.180Z,9.23
2017-06-24T06:16:46.852Z,10.47
2017-06-24T06:19:13.524Z,10.50
2017-06-24T06:21:40.187Z,10.10
2017-06-24T06:24:06.882Z,11.90
2017-06-24T06:26:33.551Z,10.50
2017-06-24T06:29:00.272Z,12.40
2017-06-24T06:31:26.952Z,13.77
2017-06-24T06:33:54.559Z,10.73
2017-06-24T06:36:21.225Z,10.60
2017-06-24T06:38:47.905Z,10.60
2017-06-24T06:41:14.580Z,10.80
2017-06-24T06:43:41.256Z,11.97
2017-06-24T06:46:07.928Z,13.40
2017-06-24T06:48:34.603Z,13.30
2017-06-24T06:51:01.280Z,13.20
2017-06-24T06:53:27.964Z,14.57
2017-06-24T06:55:54.640Z,12.40
2017-06-24T06:58:21.329Z,14.00
2017-06-24T07:00:48.035Z,14.30
2017-06-24T07:03:14.711Z,17.37
2017-06-24T07:05:41.661Z,14.67
2017-06-24T07:08:08.357Z,13.52
2017-06-24T07:10:35.036Z,14.90
2017-06-24T07:13:01.713Z,14.43
2017-06-24T07:15:28.396Z,14.82
2017-06-24T07:17:55.110Z,16.80
2017-06-24T07:20:21.781Z,13.30
2017-06-24T07:22:48.480Z,13.60
2017-06-24T07:25:15.156Z,14.53
2017-06-24T07:27:41.863Z,14.90
2017-06-24T07:30:08.541Z,14.93
2017-06-24T07:32:35.236Z,13.53
2017-06-24T07:35:01.920Z,15.90
2017-06-24T07:37:28.623Z,14.30
2017-06-24T07:39:55.300Z,14.63
2017-06-24T07:42:22.009Z,14.00
2017-06-24T07:44:48.684Z,13.57
2017-06-24T07:47:15.361Z,14.30
2017-06-24T07:49:42.035Z,13.77
2017-06-24T07:52:08.711Z,13.60
2017-06-24T07:54:35.408Z,13.20
2017-06-24T07:57:02.089Z,14.23
2017-06-24T07:59:28.788Z,13.60
2017-06-24T08:01:55.460Z,16.17
2017-06-24T08:04:22.159Z,14.27
2017-06-24T08:06:48.835Z,19.83
2017-06-24T08:09:15.544Z,15.63
2017-06-24T08:11:42.227Z,17.03
2017-06-24T08:14:08.928Z,18.70
2017-06-24T08:16:35.608Z,14.53
2017-06-24T08:19:02.317Z,15.00
2017-06-24T08:21:29.004Z,14.93
2017-06-24T08:23:55.676Z,14.53
2017-06-24T08:26:22.358Z,15.17
2017-06-24T08:28:49.067Z,14.40
2017-06-24T08:31:15.739Z,13.67
2017-06-24T08:33:42.417Z,14.70
2017-06-24T08:36:09.118Z,13.20
2017-06-24T08:38:35.796Z,13.90
2017-06-24T08:41:02.544Z,12.13
2017-06-24T08:43:29.220Z,12.40
2017-06-24T08:45:55.895Z,13.20
2017-06-24T08:48:22.565Z,14.40
2017-06-24T08:50:49.244Z,13.53
2017-06-24T08:53:15.927Z,13.57
2017-06-24T08:55:42.612Z,12.97
2017-06-24T08:58:09.279Z,12.93
2017-06-24T09:00:35.961Z,13.43
2017-06-24T09:03:02.669Z,12.77
2017-06-24T09:05:29.344Z,13.83
2017-06-24T09:07:56.045Z,14.43
2017-06-24T09:10:22.727Z,13.23
2017-06-24T09:12:49.425Z,13.13
2017-06-24T09:15:16.104Z,12.93
2017-06-24T09:17:42.812Z,13.23
2017-06-24T09:20:09.484Z,11.60
2017-06-24T09:22:36.153Z,13.17
2017-06-24T09:25:02.839Z,13.07
2017-06-24T09:27:29.525Z,13.90
2017-06-24T09:29:56.212Z,14.00
2017-06-24T09:32:22.896Z,13.63
2017-06-24T09:34:49.588Z,12.70
2017-06-24T09:37:16.262Z,11.57
2017-06-24T09:39:42.937Z,12.50
2017-06-24T09:42:09.607Z,12.07
2017-06-24T09:44:36.313Z,12.47
2017-06-24T09:47:02.992Z,12.07
2017-06-24T09:49:29.695Z,11.67
2017-06-24T09:51:56.364Z,11.40
2017-06-24T09:54:23.053Z,12.50
2017-06-24T09:56:49.952Z,11.73
2017-06-24T09:59:16.618Z,12.33
2017-06-24T10:01:43.293Z,11.63
2017-06-24T10:04:09.965Z,12.77
2017-06-24T10:06:36.637Z,12.60
2017-06-24T10:09:03.336Z,11.70
2017-06-24T10:11:30.025Z,12.40
2017-06-24T10:13:56.704Z,11.93
2017-06-24T10:16:23.380Z,12.83
2017-06-24T10:18:50.054Z,12.53
2017-06-24T10:21:16.728Z,12.53
2017-06-24T10:23:43.410Z,12.10
2017-06-24T10:26:10.112Z,12.03
2017-06-24T10:28:36.792Z,12.40
2017-06-24T10:31:03.466Z,15.93
2017-06-24T10:33:30.149Z,12.50
2017-06-24T10:35:56.824Z,13.67
2017-06-24T10:38:23.506Z,12.17
2017-06-24T10:40:50.212Z,12.03
2017-06-24T10:43:16.897Z,13.07
2017-06-24T10:45:43.568Z,11.93
2017-06-24T10:48:10.270Z,13.30
2017-06-24T10:50:36.960Z,12.97
2017-06-24T10:53:03.667Z,12.37
2017-06-24T10:55:30.356Z,13.10
2017-06-24T10:57:57.029Z,11.77
2017-06-24T11:00:23.723Z,16.67
2017-06-24T11:02:50.402Z,13.80
2017-06-24T11:05:17.111Z,12.80
2017-06-24T11:07:43.793Z,15.83
2017-06-24T11:10:10.514Z,13.00
2017-06-24T11:12:37.188Z,11.47
2017-06-24T11:15:03.885Z,10.87
2017-06-24T11:17:30.551Z,9.33
2017-06-24T11:19:57.264Z,9.07
2017-06-24T11:22:23.936Z,9.40
2017-06-24T11:24:50.600Z,8.30
2017-06-24T11:27:17.271Z,8.37
2017-06-24T11:29:43.938Z,9.03
2017-06-24T11:32:10.628Z,8.90
2017-06-24T11:34:37.334Z,10.13
2017-06-24T11:37:04.044Z,10.00
2017-06-24T11:39:30.711Z,10.07
2017-06-24T11:41:57.409Z,10.13
2017-06-24T11:44:24.076Z,10.33
2017-06-24T11:46:50.781Z,11.93
2017-06-24T11:49:17.452Z,10.93
2017-06-24T11:51:44.154Z,11.80
2017-06-24T11:54:10.825Z,11.00
2017-06-24T11:56:37.542Z,13.43
2017-06-24T11:59:04.219Z,17.23
2017-06-24T12:01:30.906Z,12.60
2017-06-24T12:03:57.615Z,15.13
2017-06-24T12:06:24.289Z,18.47
2017-06-24T12:08:50.983Z,13.80
2017-06-24T12:11:17.657Z,11.90
2017-06-24T12:13:44.357Z,10.77
2017-06-24T12:16:11.024Z,9.80
2017-06-24T12:18:37.719Z,11.00
2017-06-24T12:21:04.384Z,10.03
2017-06-24T12:23:31.086Z,9.90
2017-06-24T12:25:57.763Z,10.87
2017-06-24T12:28:24.455Z,9.60
2017-06-24T12:30:51.124Z,10.40
2017-06-24T12:33:17.806Z,11.40
2017-06-24T12:35:44.505Z,12.40
2017-06-24T12:38:11.175Z,13.03
2017-06-24T12:40:37.881Z,15.17
2017-06-24T12:43:04.561Z,12.10
2017-06-24T12:45:31.261Z,11.63
2017-06-24T12:47:57.946Z,12.80
2017-06-24T12:50:24.644Z,13.93
2017-06-24T12:52:51.321Z,22.20
2017-06-24T12:55:18.028Z,11.93
2017-06-24T12:57:44.699Z,21.10
2017-06-24T13:00:11.379Z,13.63
2017-06-24T13:02:38.060Z,16.73
2017-06-24T13:05:04.743Z,14.67
2017-06-24T13:07:31.438Z,14.83
2017-06-24T13:09:58.111Z,14.07
2017-06-24T13:12:24.809Z,13.50
2017-06-24T13:14:51.493Z,14.33
2017-06-24T13:17:18.229Z,15.63
2017-06-24T13:19:44.903Z,14.30
2017-06-24T13:22:11.585Z,14.67
2017-06-24T13:24:38.256Z,21.80
2017-06-24T13:27:04.931Z,18.43
2017-06-24T13:29:31.605Z,15.10
2017-06-24T13:31:58.276Z,14.90
2017-06-24T13:34:24.959Z,14.80
2017-06-24T13:36:51.632Z,15.90
2017-06-24T13:39:18.337Z,16.37
2017-06-24T13:41:45.008Z,14.77
2017-06-24T13:44:11.723Z,15.43
2017-06-24T13:46:38.392Z,16.33
2017-06-24T13:49:05.085Z,15.80
2017-06-24T13:51:31.772Z,16.93
2017-06-24T13:53:58.465Z,16.03
2017-06-24T13:56:25.148Z,16.40
2017-06-24T13:58:51.825Z,16.40
2017-06-24T14:01:18.497Z,15.17
2017-06-24T14:03:45.168Z,16.40
2017-06-24T14:06:11.864Z,15.63
2017-06-24T14:08:38.541Z,16.30
2017-06-24T14:11:05.249Z,15.37
2017-06-24T14:13:31.923Z,14.60
2017-06-24T14:15:58.597Z,16.07
2017-06-24T14:18:25.276Z,15.40
2017-06-24T14:20:51.967Z,14.60
2017-06-24T14:23:18.651Z,14.10
2017-06-24T14:25:45.340Z,16.00
2017-06-24T14:28:12.020Z,14.10
2017-06-24T14:30:38.716Z,13.90
2017-06-24T14:33:05.420Z,14.83
2017-06-24T14:35:32.086Z,13.67
2017-06-24T14:37:58.752Z,14.37
2017-06-24T14:40:25.427Z,14.20
2017-06-24T14:42:52.105Z,14.30
2017-06-24T14:45:18.792Z,15.10
2017-06-24T14:47:45.480Z,14.48
2017-06-24T14:50:12.160Z,13.88
2017-06-24T14:52:38.840Z,15.05
2017-06-24T14:55:05.523Z,13.68
2017-06-24T14:57:32.216Z,14.45
2017-06-24T14:59:58.893Z,14.83
2017-06-24T15:02:25.577Z,14.73
2017-06-24T15:04:52.277Z,15.70
2017-06-24T15:07:19.191Z,14.97
2017-06-24T15:09:45.908Z,14.53
2017-06-24T15:12:12.599Z,16.67
2017-06-24T15:14:39.271Z,15.13
2017-06-24T15:17:05.951Z,16.97
2017-06-24T15:19:32.623Z,14.90
2017-06-24T15:21:59.300Z,16.40
2017-06-24T15:24:25.974Z,15.33
2017-06-24T15:26:52.650Z,16.37
2017-06-24T15:29:19.323Z,15.07
2017-06-24T15:31:45.992Z,16.50
2017-06-24T15:34:12.662Z,15.47
2017-06-24T15:36:39.340Z,16.37
2017-06-24T15:39:06.016Z,16.53
2017-06-24T15:41:32.716Z,15.17
2017-06-24T15:43:59.389Z,14.83
2017-06-24T15:46:26.060Z,13.70
2017-06-24T15:48:52.724Z,14.63
2017-06-24T15:51:19.397Z,14.47
2017-06-24T15:53:46.075Z,15.10
2017-06-24T15:56:12.744Z,13.87
2017-06-24T15:58:39.423Z,14.93
2017-06-24T16:01:06.097Z,15.57
2017-06-24T16:03:32.771Z,14.03
2017-06-24T16:05:59.452Z,17.40
2017-06-24T16:08:26.121Z,15.60
2017-06-24T16:10:52.787Z,15.50
2017-06-24T16:13:19.494Z,16.50
2017-06-24T16:15:46.165Z,16.13
2017-06-24T16:18:12.833Z,15.23
2017-06-24T16:20:39.520Z,16.53
2017-06-24T16:23:06.221Z,16.52
2017-06-24T16:25:32.895Z,17.20
2017-06-24T16:27:59.577Z,18.60
2017-06-24T16:30:26.299Z,17.73
2017-06-24T16:32:52.981Z,17.77
2017-06-24T16:35:19.666Z,19.42
2017-06-24T16:37:46.384Z,18.17
2017-06-24T16:40:13.078Z,18.92
2017-06-24T16:42:40.699Z,19.60
2017-06-24T16:45:07.389Z,20.95
2017-06-24T16:47:34.091Z,21.10
2017-06-24T16:50:00.776Z,22.52
2017-06-24T16:52:27.473Z,25.30
2017-06-24T16:54:54.167Z,23.58
2017-06-24T16:57:20.884Z,23.50
2017-06-24T16:59:47.585Z,23.92
2017-06-24T17:02:14.297Z,22.00
2017-06-24T17:04:40.983Z,24.33
2017-06-24T17:07:07.677Z,22.23
2017-06-24T17:09:34.393Z,23.65
2017-06-24T17:12:01.071Z,22.23
2017-06-24T17:14:27.780Z,23.48
2017-06-24T17:16:54.468Z,22.42
2017-06-24T17:19:21.171Z,21.85
2017-06-24T17:21:47.866Z,21.15
2017-06-24T17:24:14.576Z,20.58
2017-06-24T17:26:41.259Z,21.85
2017-06-24T17:29:07.985Z,21.52
2017-06-24T17:31:34.679Z,20.95
2017-06-24T17:34:01.359Z,21.98
2017-06-24T17:36:28.055Z,20.37
2017-06-24T17:38:54.740Z,21.73
2017-06-24T17:41:21.451Z,20.92
2017-06-24T17:43:48.131Z,21.35
2017-06-24T17:46:14.844Z,20.85
2017-06-24T17:48:41.532Z,19.67
2017-06-24T17:51:08.239Z,21.10
2017-06-24T17:53:34.912Z,19.83
2017-06-24T17:56:01.624Z,20.45
2017-06-24T17:58:28.311Z,21.40
2017-06-24T18:00:55.022Z,20.45
2017-06-24T18:03:21.721Z,18.60
2017-06-24T18:05:48.439Z,20.35
2017-06-24T18:08:15.124Z,19.67
2017-06-24T18:10:41.808Z,18.67
2017-06-24T18:13:08.488Z,20.17
2017-06-24T18:15:35.180Z,21.12
2017-06-24T18:18:01.877Z,19.73
2017-06-24T18:20:28.563Z,21.15
2017-06-24T18:22:55.273Z,22.37
2017-06-24T18:25:21.948Z,22.58
2017-06-24T18:27:48.649Z,23.52
2017-06-24T18:30:15.336Z,22.37
2017-06-24T18:32:42.052Z,21.65
2017-06-24T18:35:08.739Z,21.90
2017-06-24T18:37:35.465Z,20.42
2017-06-24T18:40:02.144Z,20.45
2017-06-24T18:42:28.821Z,21.40
2017-06-24T18:44:55.497Z,19.87
2017-06-24T18:47:22.183Z,20.48
2017-06-24T18:49:48.911Z,20.12
2017-06-24T18:52:15.596Z,19.25
2017-06-24T18:54:42.308Z,20.23
2017-06-24T18:57:08.990Z,21.12
2017-06-24T18:59:35.701Z,20.05
2017-06-24T19:02:02.382Z,21.75
2017-06-24T19:04:29.089Z,19.23
2017-06-24T19:06:55.772Z,19.35
2017-06-24T19:09:22.472Z,21.23
2017-06-24T19:11:49.151Z,21.98
2017-06-24T19:14:15.864Z,20.52
2017-06-24T19:16:42.552Z,22.10
2017-06-24T19:19:09.239Z,20.50
2017-06-24T19:21:35.938Z,20.40
2017-06-24T19:24:02.612Z,20.42
2017-06-24T19:26:29.284Z,18.62
2017-06-24T19:28:55.959Z,21.25
2017-06-24T19:31:22.664Z,20.48
2017-06-24T19:33:49.339Z,23.10
2017-06-24T19:36:16.036Z,21.73
2017-06-24T19:38:42.719Z,20.58
2017-06-24T19:41:09.422Z,20.88
2017-06-24T19:43:36.091Z,22.20
2017-06-24T19:46:02.767Z,21.08
2017-06-24T19:48:29.444Z,22.02
2017-06-24T19:50:56.111Z,19.35
2017-06-24T19:53:22.783Z,19.15
2017-06-24T19:55:49.484Z,20.83
2017-06-24T19:58:16.203Z,21.00
2017-06-24T20:00:42.880Z,21.33
2017-06-24T20:03:09.580Z,21.05
2017-06-24T20:05:36.255Z,22.77
2017-06-24T20:08:02.952Z,22.85
2017-06-24T20:10:29.627Z,20.37
2017-06-24T20:12:56.313Z,20.00
2017-06-24T20:15:22.988Z,20.90
2017-06-24T20:17:49.664Z,20.73
2017-06-24T20:20:16.351Z,19.55
2017-06-24T20:22:43.031Z,20.00
2017-06-24T20:25:09.705Z,19.15
2017-06-24T20:27:36.375Z,20.25
2017-06-24T20:30:03.046Z,18.50
2017-06-24T20:32:29.720Z,18.10
2017-06-24T20:34:56.444Z,17.75
2017-06-24T20:37:23.121Z,18.67
2017-06-24T20:39:49.803Z,18.62
2017-06-24T20:42:16.480Z,20.65
2017-06-24T20:44:43.170Z,18.70
2017-06-24T20:47:09.849Z,19.52
2017-06-24T20:49:36.537Z,17.50
2017-06-24T20:52:03.218Z,17.65
2017-06-24T20:54:29.895Z,18.70
2017-06-24T20:56:56.585Z,16.65
2017-06-24T20:59:23.264Z,17.05
2017-06-24T21:01:49.944Z,15.55
2017-06-24T21:04:16.620Z,16.08
2017-06-24T21:06:43.337Z,15.75
2017-06-24T21:09:10.009Z,16.20
2017-06-24T21:11:36.678Z,17.80
2017-06-24T21:14:03.353Z,16.40
2017-06-24T21:16:30.024Z,15.68
2017-06-24T21:18:56.700Z,16.83
2017-06-24T21:21:23.374Z,16.87
2017-06-24T21:23:50.044Z,17.83
2017-06-24T21:26:16.721Z,17.40
2017-06-24T21:28:43.407Z,20.70
2017-06-24T21:31:10.109Z,19.00
2017-06-24T21:33:36.781Z,18.83
2017-06-24T21:36:03.460Z,20.85
2017-06-24T21:38:30.173Z,20.48
2017-06-24T21:40:56.847Z,20.85
2017-06-24T21:43:23.526Z,21.52
2017-06-24T21:45:50.201Z,21.08
2017-06-24T21:48:16.883Z,22.35
2017-06-24T21:50:43.564Z,22.77
2017-06-24T21:53:10.240Z,22.73
2017-06-24T21:55:36.912Z,21.80
2017-06-24T21:58:03.587Z,21.30
2017-06-24T22:00:30.266Z,22.20
2017-06-24T22:02:56.946Z,21.80
2017-06-24T22:05:23.616Z,20.52
2017-06-24T22:07:50.289Z,18.60
2017-06-24T22:10:16.975Z,19.27
2017-06-24T22:12:43.649Z,19.02
2017-06-24T22:15:10.353Z,19.40
2017-06-24T22:17:37.028Z,18.40
2017-06-24T22:20:03.700Z,17.05
2017-06-24T22:22:30.383Z,16.08
2017-06-24T22:24:57.064Z,15.15
2017-06-24T22:27:23.740Z,12.82
2017-06-24T22:29:50.418Z,12.75
2017-06-24T22:32:17.096Z,12.85
2017-06-24T22:34:43.792Z,12.13
2017-06-24T22:37:10.463Z,12.40
2017-06-24T22:39:37.138Z,12.32
2017-06-24T22:42:03.815Z,10.73
2017-06-24T22:44:30.508Z,12.82
2017-06-24T22:46:57.214Z,11.75
2017-06-24T22:49:23.891Z,10.43
2017-06-24T22:51:50.558Z,9.15
2017-06-24T22:54:17.228Z,10.10
2017-06-24T22:56:43.899Z,8.90
2017-06-24T22:59:10.602Z,9.27
2017-06-24T23:01:37.272Z,8.68
2017-06-24T23:04:03.959Z,8.65
2017-06-24T23:06:30.623Z,9.32
2017-06-24T23:08:57.320Z,9.02
2017-06-24T23:11:23.987Z,8.07
2017-06-24T23:13:50.676Z,8.00
2017-06-24T23:16:17.347Z,8.75
2017-06-24T23:18:44.062Z,8.32
2017-06-24T23:21:10.728Z,8.43
2017-06-24T23:23:37.404Z,7.85
2017-06-24T23:26:04.080Z,7.50
2017-06-24T23:28:30.756Z,7.93
2017-06-24T23:30:57.448Z,6.80
2017-06-24T23:33:24.118Z,6.85
2017-06-24T23:35:50.813Z,7.07
2017-06-24T23:38:17.483Z,6.00
2017-06-24T23:40:44.178Z,6.62
2017-06-24T23:43:10.847Z,7.18
2017-06-24T23:45:37.531Z,6.90
2017-06-24T23:48:04.202Z,6.50
2017-06-24T23:50:30.895Z,6.12
2017-06-24T23:52:57.562Z,6.03
2017-06-24T23:55:24.261Z,5.90
2017-06-24T23:57:50.931Z,6.78
